Time,TemperatureF,DewpointF,PressureIn,WindDirection,WindDirectionDegrees,WindSpeedMPH,WindSpeedGustMPH,Humidity,HourlyPrecipIn,Conditions,Clouds,dailyrainin,SoftwareType,DateUTC
2013-02-22 00:01:00,36.0,29.0,30.27,NNW,335,2.0,-999.0,76,-99.99,,,-99.99,,2013-02-22 07:01:00,
2013-02-22 00:11:00,35.0,28.0,30.25,NNW,335,2.0,-999.0,76,-99.99,,,-99.99,,2013-02-22 07:11:00,
2013-02-22 00:21:00,35.0,28.0,30.25,NNW,335,2.0,-999.0,76,-99.99,,,-99.99,,2013-02-22 07:21:00,
2013-02-22 00:31:00,36.0,28.0,30.26,NNW,335,4.0,-999.0,73,-99.99,,,-99.99,,2013-02-22 07:31:00,
2013-02-22 00:42:00,36.0,28.0,30.25,NNW,340,0.0,-999.0,73,-99.99,,,-99.99,,2013-02-22 07:42:00,
2013-02-22 00:52:00,36.0,28.0,30.25,NNW,340,0.0,-999.0,73,-99.99,,,-99.99,,2013-02-22 07:52:00,
2013-02-22 01:01:00,36.0,29.0,30.25,NNW,332,1.0,-999.0,74,-99.99,,,-99.99,,2013-02-22 08:01:00,
2013-02-22 01:11:00,35.0,28.0,30.25,NNW,336,2.0,-999.0,76,-99.99,,,-99.99,,2013-02-22 08:11:00,
2013-02-22 01:21:00,35.0,28.0,30.25,NNW,336,2.0,-999.0,76,-99.99,,,-99.99,,2013-02-22 08:21:00,
2013-02-22 01:31:00,35.0,28.0,30.27,NNW,336,2.0,-999.0,76,-99.99,,,-99.99,,2013-02-22 08:31:00,
2013-02-22 01:41:00,35.0,28.0,30.27,NNW,336,2.0,-999.0,76,-99.99,,,-99.99,,2013-02-22 08:41:00,
2013-02-22 01:52:00,34.0,27.0,30.26,NNW,335,2.0,-999.0,76,-99.99,,,-99.99,,2013-02-22 08:52:00,
2013-02-22 02:02:00,34.0,28.0,30.27,NNW,335,1.0,-999.0,77,-99.99,,,-99.99,,2013-02-22 09:02:00,
2013-02-22 02:11:00,34.0,28.0,30.26,NNW,335,0.0,-999.0,78,-99.99,,,-99.99,,2013-02-22 09:11:00,
2013-02-22 02:21:00,34.0,28.0,30.26,NNW,335,0.0,-999.0,78,-99.99,,,-99.99,,2013-02-22 09:21:00,
2013-02-22 02:31:00,33.0,27.0,30.26,NNW,335,0.0,-999.0,78,-99.99,,,-99.99,,2013-02-22 09:31:00,
2013-02-22 02:41:00,33.0,27.0,30.26,NNW,335,0.0,-999.0,78,-99.99,,,-99.99,,2013-02-22 09:41:00,
2013-02-22 02:52:00,33.0,27.0,30.26,NNW,335,0.0,-999.0,78,-99.99,,,-99.99,,2013-02-22 09:52:00,
2013-02-22 03:01:00,32.0,27.0,30.26,NNW,335,2.0,-999.0,81,-99.99,,,-99.99,,2013-02-22 10:01:00,
2013-02-22 03:11:00,31.0,26.0,30.24,NNW,335,1.0,-999.0,82,-99.99,,,-99.99,,2013-02-22 10:11:00,
2013-02-22 03:21:00,31.0,26.0,30.24,NNW,335,1.0,-999.0,82,-99.99,,,-99.99,,2013-02-22 10:21:00,
2013-02-22 03:31:00,30.0,26.0,30.24,NNW,335,0.0,-999.0,84,-99.99,,,-99.99,,2013-02-22 10:31:00,
2013-02-22 03:42:00,30.0,26.0,30.24,NNW,335,0.0,-999.0,84,-99.99,,,-99.99,,2013-02-22 10:42:00,
2013-02-22 03:52:00,30.0,26.0,30.24,NNW,333,2.0,-999.0,84,-99.99,,,-99.99,,2013-02-22 10:52:00,
2013-02-22 04:01:00,30.0,26.0,30.26,NNW,333,3.0,-999.0,84,-99.99,,,-99.99,,2013-02-22 11:01:00,
2013-02-22 04:11:00,29.0,25.0,30.26,NNW,333,2.0,-999.0,83,-99.99,,,-99.99,,2013-02-22 11:11:00,
2013-02-22 04:21:00,29.0,25.0,30.26,NNW,333,2.0,-999.0,83,-99.99,,,-99.99,,2013-02-22 11:21:00,
2013-02-22 04:31:00,28.0,24.0,30.27,NNW,333,3.0,-999.0,83,-99.99,,,-99.99,,2013-02-22 11:31:00,
2013-02-22 04:42:00,28.0,24.0,30.27,NNW,333,3.0,-999.0,83,-99.99,,,-99.99,,2013-02-22 11:42:00,
2013-02-22 04:52:00,29.0,25.0,30.27,NNW,333,1.0,-999.0,83,-99.99,,,-99.99,,2013-02-22 11:52:00,
2013-02-22 05:01:00,30.0,25.0,30.26,NNW,337,0.0,-999.0,81,-99.99,,,-99.99,,2013-02-22 12:01:00,
2013-02-22 05:11:00,30.0,25.0,30.26,NNW,337,0.0,-999.0,81,-99.99,,,-99.99,,2013-02-22 12:11:00,
2013-02-22 05:21:00,30.0,24.0,30.27,NNW,337,0.0,-999.0,79,-99.99,,,-99.99,,2013-02-22 12:21:00,
2013-02-22 05:32:00,30.0,25.0,30.28,NNW,333,2.0,-999.0,82,-99.99,,,-99.99,,2013-02-22 12:32:00,
2013-02-22 05:42:00,30.0,25.0,30.28,NNW,333,2.0,-999.0,82,-99.99,,,-99.99,,2013-02-22 12:42:00,
2013-02-22 05:52:00,30.0,25.0,30.29,NNW,339,0.0,-999.0,83,-99.99,,,-99.99,,2013-02-22 12:52:00,
2013-02-22 06:01:00,30.0,25.0,30.29,NNW,339,0.0,-999.0,83,-99.99,,,-99.99,,2013-02-22 13:01:00,
2013-02-22 06:11:00,30.0,25.0,30.29,NNW,339,0.0,-999.0,83,-99.99,,,-99.99,,2013-02-22 13:11:00,
2013-02-22 06:22:00,28.0,24.0,30.29,NNW,339,2.0,-999.0,83,-99.99,,,-99.99,,2013-02-22 13:22:00,
2013-02-22 06:31:00,27.0,23.0,30.28,NNW,337,3.0,-999.0,84,-99.99,,,-99.99,,2013-02-22 13:31:00,
2013-02-22 06:41:00,27.0,23.0,30.28,NNW,337,3.0,-999.0,84,-99.99,,,-99.99,,2013-02-22 13:41:00,
2013-02-22 06:52:00,28.0,24.0,30.29,NNW,337,2.0,-999.0,85,-99.99,,,-99.99,,2013-02-22 13:52:00,
2013-02-22 07:01:00,28.0,24.0,30.30,NNW,337,2.0,-999.0,85,-99.99,,,-99.99,,2013-02-22 14:01:00,
2013-02-22 07:11:00,27.0,23.0,30.31,NNW,337,3.0,-999.0,86,-99.99,,,-99.99,,2013-02-22 14:11:00,
2013-02-22 07:21:00,27.0,23.0,30.31,NNW,337,3.0,-999.0,86,-99.99,,,-99.99,,2013-02-22 14:21:00,
2013-02-22 07:31:00,28.0,24.0,30.31,NNW,337,2.0,-999.0,86,-99.99,,,-99.99,,2013-02-22 14:31:00,
2013-02-22 07:41:00,31.0,27.0,30.32,NNW,337,1.0,-999.0,84,-99.99,,,-99.99,,2013-02-22 14:41:00,
2013-02-22 07:52:00,31.0,27.0,30.32,NNW,337,1.0,-999.0,84,-99.99,,,-99.99,,2013-02-22 14:52:00,
2013-02-22 08:01:00,33.0,28.0,30.33,NNW,337,0.0,-999.0,81,-99.99,,,-99.99,,2013-02-22 15:01:00,
2013-02-22 08:11:00,36.0,30.0,30.33,NNW,337,0.0,-999.0,78,-99.99,,,-99.99,,2013-02-22 15:11:00,
2013-02-22 08:21:00,36.0,30.0,30.33,NNW,337,0.0,-999.0,78,-99.99,,,-99.99,,2013-02-22 15:21:00,
2013-02-22 08:31:00,37.0,29.0,30.33,NNW,337,0.0,-999.0,73,-99.99,,,-99.99,,2013-02-22 15:31:00,
2013-02-22 08:41:00,37.0,29.0,30.33,NNW,337,0.0,-999.0,73,-99.99,,,-99.99,,2013-02-22 15:41:00,
2013-02-22 08:52:00,39.0,28.0,30.35,NNE,28,0.0,-999.0,65,-99.99,,,-99.99,,2013-02-22 15:52:00,
2013-02-22 09:01:00,38.0,28.0,30.36,ENE,66,2.0,-999.0,68,-99.99,,,-99.99,,2013-02-22 16:01:00,
2013-02-22 09:11:00,39.0,30.0,30.35,ENE,73,2.0,-999.0,69,-99.99,,,-99.99,,2013-02-22 16:11:00,
2013-02-22 09:21:00,39.0,30.0,30.35,ENE,73,2.0,-999.0,69,-99.99,,,-99.99,,2013-02-22 16:21:00,
2013-02-22 09:31:00,40.0,30.0,30.37,East,82,2.0,-999.0,68,-99.99,,,-99.99,,2013-02-22 16:31:00,
2013-02-22 09:41:00,40.0,30.0,30.37,East,82,2.0,-999.0,68,-99.99,,,-99.99,,2013-02-22 16:41:00,
2013-02-22 09:52:00,40.0,30.0,30.37,ENE,68,2.0,-999.0,67,-99.99,,,-99.99,,2013-02-22 16:52:00,
2013-02-22 10:01:00,40.0,30.0,30.37,East,92,3.0,-999.0,66,-99.99,,,-99.99,,2013-02-22 17:01:00,
2013-02-22 10:11:00,41.0,29.0,30.36,ENE,72,4.0,-999.0,63,-99.99,,,-99.99,,2013-02-22 17:11:00,
2013-02-22 10:21:00,41.0,29.0,30.36,ENE,72,4.0,-999.0,63,-99.99,,,-99.99,,2013-02-22 17:21:00,
2013-02-22 10:31:00,42.0,30.0,30.35,East,85,5.0,-999.0,62,-99.99,,,-99.99,,2013-02-22 17:31:00,
2013-02-22 10:41:00,42.0,30.0,30.35,East,85,5.0,-999.0,62,-99.99,,,-99.99,,2013-02-22 17:41:00,
2013-02-22 10:52:00,42.0,28.0,30.38,ESE,102,3.0,-999.0,58,-99.99,,,-99.99,,2013-02-22 17:52:00,
2013-02-22 11:01:00,42.0,27.0,30.36,ENE,75,2.0,-999.0,56,-99.99,,,-99.99,,2013-02-22 18:01:00,
2013-02-22 11:11:00,42.0,27.0,30.38,South,179,4.0,-999.0,56,-99.99,,,-99.99,,2013-02-22 18:11:00,
2013-02-22 11:22:00,42.0,27.0,30.38,South,179,4.0,-999.0,56,-99.99,,,-99.99,,2013-02-22 18:22:00,
2013-02-22 11:31:00,43.0,28.0,30.37,East,93,4.0,-999.0,55,-99.99,,,-99.99,,2013-02-22 18:31:00,
2013-02-22 11:42:00,43.0,28.0,30.37,East,93,4.0,-999.0,55,-99.99,,,-99.99,,2013-02-22 18:42:00,
2013-02-22 11:52:00,44.0,28.0,30.36,SSE,162,1.0,-999.0,53,-99.99,,,-99.99,,2013-02-22 18:52:00,
2013-02-22 12:01:00,45.0,28.0,30.37,SSE,155,2.0,-999.0,52,-99.99,,,-99.99,,2013-02-22 19:01:00,
2013-02-22 12:11:00,45.0,29.0,30.37,SE,124,1.0,-999.0,53,-99.99,,,-99.99,,2013-02-22 19:11:00,
2013-02-22 12:21:00,45.0,29.0,30.37,SE,124,1.0,-999.0,53,-99.99,,,-99.99,,2013-02-22 19:21:00,
2013-02-22 12:31:00,46.0,28.0,30.36,East,83,3.0,-999.0,49,-99.99,,,-99.99,,2013-02-22 19:31:00,
2013-02-22 12:41:00,46.0,24.0,30.35,NW,308,3.0,-999.0,42,-99.99,,,-99.99,,2013-02-22 19:41:00,
2013-02-22 12:52:00,46.0,24.0,30.35,NW,308,3.0,-999.0,42,-99.99,,,-99.99,,2013-02-22 19:52:00,
2013-02-22 13:01:00,47.0,27.0,30.34,NNW,337,7.0,-999.0,45,-99.99,,,-99.99,,2013-02-22 20:01:00,
2013-02-22 13:11:00,47.0,27.0,30.34,NNW,337,7.0,-999.0,45,-99.99,,,-99.99,,2013-02-22 20:11:00,
2013-02-22 13:21:00,48.0,26.0,30.35,NNW,333,6.0,-999.0,42,-99.99,,,-99.99,,2013-02-22 20:21:00,
2013-02-22 13:31:00,48.0,27.0,30.33,NW,319,9.0,-999.0,43,-99.99,,,-99.99,,2013-02-22 20:31:00,
2013-02-22 13:41:00,48.0,27.0,30.33,NW,319,9.0,-999.0,43,-99.99,,,-99.99,,2013-02-22 20:41:00,
2013-02-22 13:52:00,48.0,28.0,30.33,NW,311,9.0,-999.0,45,-99.99,,,-99.99,,2013-02-22 20:52:00,
2013-02-22 14:01:00,48.0,27.0,30.32,NNW,330,9.0,-999.0,44,-99.99,,,-99.99,,2013-02-22 21:01:00,
2013-02-22 14:11:00,48.0,26.0,30.32,NW,306,11.0,-999.0,42,-99.99,,,-99.99,,2013-02-22 21:11:00,
2013-02-22 14:21:00,48.0,26.0,30.32,NW,306,11.0,-999.0,42,-99.99,,,-99.99,,2013-02-22 21:21:00,
2013-02-22 14:31:00,49.0,26.0,30.35,WNW,289,8.0,-999.0,40,-99.99,,,-99.99,,2013-02-22 21:31:00,
2013-02-22 14:41:00,48.0,25.0,30.33,NW,326,7.0,-999.0,41,-99.99,,,-99.99,,2013-02-22 21:41:00,
2013-02-22 14:52:00,48.0,25.0,30.33,NW,326,7.0,-999.0,41,-99.99,,,-99.99,,2013-02-22 21:52:00,
2013-02-22 15:01:00,48.0,24.0,30.32,WNW,284,9.0,-999.0,38,-99.99,,,-99.99,,2013-02-22 22:01:00,
2013-02-22 15:11:00,48.0,24.0,30.32,WNW,284,9.0,-999.0,38,-99.99,,,-99.99,,2013-02-22 22:11:00,
2013-02-22 15:21:00,48.0,24.0,30.33,NNW,346,9.0,-999.0,38,-99.99,,,-99.99,,2013-02-22 22:21:00,
2013-02-22 15:31:00,48.0,26.0,30.31,WNW,296,9.0,-999.0,42,-99.99,,,-99.99,,2013-02-22 22:31:00,
2013-02-22 15:41:00,48.0,26.0,30.31,WNW,296,9.0,-999.0,42,-99.99,,,-99.99,,2013-02-22 22:41:00,
2013-02-22 15:51:00,49.0,25.0,30.34,WNW,296,6.0,-999.0,39,-99.99,,,-99.99,,2013-02-22 22:51:00,
2013-02-22 16:01:00,48.0,25.0,30.35,West,263,9.0,-999.0,40,-99.99,,,-99.99,,2013-02-22 23:01:00,
2013-02-22 16:11:00,48.0,25.0,30.35,West,263,9.0,-999.0,40,-99.99,,,-99.99,,2013-02-22 23:11:00,
2013-02-22 16:21:00,47.0,23.0,30.34,West,277,10.0,-999.0,38,-99.99,,,-99.99,,2013-02-22 23:21:00,
2013-02-22 16:31:00,48.0,22.0,30.32,WNW,292,9.0,-999.0,36,-99.99,,,-99.99,,2013-02-22 23:31:00,
2013-02-22 16:41:00,48.0,22.0,30.32,WNW,292,9.0,-999.0,36,-99.99,,,-99.99,,2013-02-22 23:41:00,
2013-02-22 16:52:00,48.0,22.0,30.32,WSW,254,9.0,-999.0,35,-99.99,,,-99.99,,2013-02-22 23:52:00,
2013-02-22 17:01:00,47.0,20.0,30.32,West,264,10.0,-999.0,34,-99.99,,,-99.99,,2013-02-23 00:01:00,
2013-02-22 17:11:00,47.0,19.0,30.32,WNW,291,9.0,-999.0,32,-99.99,,,-99.99,,2013-02-23 00:11:00,
2013-02-22 17:21:00,47.0,19.0,30.32,WNW,291,9.0,-999.0,32,-99.99,,,-99.99,,2013-02-23 00:21:00,
2013-02-22 17:31:00,46.0,21.0,30.32,WNW,288,9.0,-999.0,36,-99.99,,,-99.99,,2013-02-23 00:31:00,
2013-02-22 17:41:00,46.0,21.0,30.32,WNW,288,9.0,-999.0,36,-99.99,,,-99.99,,2013-02-23 00:41:00,
2013-02-22 17:52:00,46.0,20.0,30.34,WNW,299,9.0,-999.0,35,-99.99,,,-99.99,,2013-02-23 00:52:00,
2013-02-22 18:01:00,44.0,18.0,30.35,West,265,10.0,-999.0,35,-99.99,,,-99.99,,2013-02-23 01:01:00,
2013-02-22 18:21:00,44.0,23.0,30.33,WNW,292,10.0,-999.0,43,-99.99,,,-99.99,,2013-02-23 01:21:00,
2013-02-22 18:31:00,43.0,25.0,30.35,West,281,7.0,-999.0,49,-99.99,,,-99.99,,2013-02-23 01:31:00,
2013-02-22 18:41:00,43.0,25.0,30.35,West,281,7.0,-999.0,49,-99.99,,,-99.99,,2013-02-23 01:41:00,
2013-02-22 18:52:00,42.0,24.0,30.34,West,272,8.0,-999.0,49,-99.99,,,-99.99,,2013-02-23 01:52:00,
2013-02-22 19:01:00,42.0,27.0,30.34,NNW,336,7.0,-999.0,54,-99.99,,,-99.99,,2013-02-23 02:01:00,
2013-02-22 19:11:00,41.0,25.0,30.35,NW,319,5.0,-999.0,53,-99.99,,,-99.99,,2013-02-23 02:11:00,
2013-02-22 19:21:00,41.0,25.0,30.35,NW,319,5.0,-999.0,53,-99.99,,,-99.99,,2013-02-23 02:21:00,
2013-02-22 19:31:00,41.0,25.0,30.36,NNW,347,2.0,-999.0,53,-99.99,,,-99.99,,2013-02-23 02:31:00,
2013-02-22 19:41:00,41.0,25.0,30.36,NNW,347,2.0,-999.0,53,-99.99,,,-99.99,,2013-02-23 02:41:00,
2013-02-22 19:52:00,41.0,26.0,30.37,North,359,3.0,-999.0,54,-99.99,,,-99.99,,2013-02-23 02:52:00,
2013-02-22 20:01:00,41.0,25.0,30.37,North,360,3.0,-999.0,53,-99.99,,,-99.99,,2013-02-23 03:01:00,
2013-02-22 20:11:00,40.0,25.0,30.39,North,8,4.0,-999.0,55,-99.99,,,-99.99,,2013-02-23 03:11:00,
2013-02-22 20:21:00,40.0,25.0,30.39,North,8,4.0,-999.0,55,-99.99,,,-99.99,,2013-02-23 03:21:00,
2013-02-22 20:31:00,40.0,25.0,30.40,WNW,295,1.0,-999.0,55,-99.99,,,-99.99,,2013-02-23 03:31:00,
2013-02-22 20:41:00,40.0,25.0,30.40,WNW,295,1.0,-999.0,55,-99.99,,,-99.99,,2013-02-23 03:41:00,
2013-02-22 20:52:00,40.0,26.0,30.41,NW,304,1.0,-999.0,57,-99.99,,,-99.99,,2013-02-23 03:52:00,
2013-02-22 21:01:00,38.0,25.0,30.41,WNW,302,2.0,-999.0,59,-99.99,,,-99.99,,2013-02-23 04:01:00,
2013-02-22 21:11:00,38.0,25.0,30.40,NW,304,2.0,-999.0,59,-99.99,,,-99.99,,2013-02-23 04:11:00,
2013-02-22 21:21:00,38.0,25.0,30.40,NW,304,2.0,-999.0,59,-99.99,,,-99.99,,2013-02-23 04:21:00,
2013-02-22 21:31:00,39.0,25.0,30.40,WNW,294,5.0,-999.0,57,-99.99,,,-99.99,,2013-02-23 04:31:00,
2013-02-22 21:41:00,39.0,25.0,30.40,WNW,294,5.0,-999.0,57,-99.99,,,-99.99,,2013-02-23 04:41:00,
2013-02-22 21:51:00,40.0,26.0,30.41,NNW,340,6.0,-999.0,57,-99.99,,,-99.99,,2013-02-23 04:51:00,
2013-02-22 22:01:00,38.0,26.0,30.42,NNW,335,1.0,-999.0,62,-99.99,,,-99.99,,2013-02-23 05:01:00,
2013-02-22 22:11:00,38.0,26.0,30.42,NNW,335,1.0,-999.0,62,-99.99,,,-99.99,,2013-02-23 05:11:00,
2013-02-22 22:22:00,35.0,25.0,30.41,East,85,1.0,-999.0,66,-99.99,,,-99.99,,2013-02-23 05:22:00,
2013-02-22 22:32:00,34.0,26.0,30.42,East,80,2.0,-999.0,71,-99.99,,,-99.99,,2013-02-23 05:32:00,
2013-02-22 22:41:00,34.0,26.0,30.42,East,80,2.0,-999.0,71,-99.99,,,-99.99,,2013-02-23 05:41:00,
2013-02-22 22:52:00,33.0,25.0,30.42,WSW,248,1.0,-999.0,72,-99.99,,,-99.99,,2013-02-23 05:52:00,
2013-02-22 23:01:00,33.0,25.0,30.43,WSW,248,0.0,-999.0,72,-99.99,,,-99.99,,2013-02-23 06:01:00,
2013-02-22 23:11:00,33.0,25.0,30.43,WSW,248,0.0,-999.0,72,-99.99,,,-99.99,,2013-02-23 06:11:00,
2013-02-22 23:21:00,33.0,25.0,30.43,WSW,247,1.0,-999.0,73,-99.99,,,-99.99,,2013-02-23 06:21:00,
2013-02-22 23:31:00,31.0,25.0,30.42,WSW,246,3.0,-999.0,77,-99.99,,,-99.99,,2013-02-23 06:31:00,
2013-02-22 23:41:00,31.0,25.0,30.42,WSW,246,3.0,-999.0,77,-99.99,,,-99.99,,2013-02-23 06:41:00,
2013-02-22 23:52:00,30.0,24.0,30.43,WSW,258,2.0,-999.0,79,-99.99,,,-99.99,,2013-02-23 06:52:00,